UAE232 KIAD-OMDB
Flight info
| Callsign | UAE232 |
|---|---|
| Flight time | N/A |
| Altitude | 29000 |
| Route | JCOBY4 SWANN DCT BROSS Q419 RBV Q430 ACK DCT BRADD N175G PORTI/M086F320 DCT 47N050W 49N040W 51N030W 53N020W DCT MALOT DCT GISTI/N0496F330 DCT LESLU DCT LIZAD DCT JSY DCT ARSUK DCT RESMI DCT ODEBU DCT OGULO DCT OKASI DCT OKEKO DCT MOU DCT MADIV DCT MOKIP DCT TUFTA DCT KOGAS DCT MEDAM DCT NITAM DCT MOGBO DCT UPDIN DCT SOMAS/N0496F350 DCT BELIX DCT SALUN N705 MMA P751 DASUM Y234 FYM M872 BDB Y214 KODIS/N0505F370 Y214 RAPMA DCT KUVSO DCT KATIT DCT PEKEM M628 RIGIL G783 ELUDA/N0515F350 G783 ASPED Q308 KIPOK Q568 IMPED |
| Aircraft | B77W/H-SDE1E2E3FGHIJ2J3J4J5M1RWXY/LB1D1 |
Departure
| Time | 2026-05-05 06:09 |
|---|---|
| Airport | Washington Dulles International Airport (KIAD) |
Arrival
| Time | N/A |
|---|---|
| Airport | Dubai International Airport (OMDB) |
| Time | Latitude | Longitude | Altitude | Speed | Heading |
|---|---|---|---|---|---|
| 2026-05-05 05:33 | 38.94813 | -77.44571 | 300 ft | 0 kts | 15° |
| 2026-05-05 05:57 | 38.94807 | -77.44573 | 305 ft | 2 kts | 13° |
| 2026-05-05 05:57 | 38.94787 | -77.44578 | 297 ft | 3 kts | 5° |
| 2026-05-05 05:57 | 38.94767 | -77.44579 | 300 ft | 3 kts | 355° |
| 2026-05-05 05:57 | 38.94748 | -77.44575 | 299 ft | 3 kts | 338° |
| 2026-05-05 05:58 | 38.94731 | -77.44563 | 299 ft | 3 kts | 303° |
| 2026-05-05 05:58 | 38.94726 | -77.44550 | 299 ft | 1 kts | 271° |
| 2026-05-05 06:01 | 38.94727 | -77.44594 | 301 ft | 12 kts | 270° |
| 2026-05-05 06:01 | 38.94728 | -77.44727 | 297 ft | 15 kts | 270° |
| 2026-05-05 06:02 | 38.94729 | -77.44862 | 297 ft | 15 kts | 270° |
| 2026-05-05 06:02 | 38.94730 | -77.44998 | 297 ft | 15 kts | 270° |
| 2026-05-05 06:02 | 38.94731 | -77.45056 | 297 ft | 1 kts | 271° |
| 2026-05-05 06:02 | 38.94731 | -77.45094 | 297 ft | 13 kts | 270° |
| 2026-05-05 06:03 | 38.94732 | -77.45261 | 297 ft | 20 kts | 270° |
| 2026-05-05 06:03 | 38.94734 | -77.45431 | 297 ft | 15 kts | 270° |
| 2026-05-05 06:03 | 38.94735 | -77.45534 | 297 ft | 10 kts | 271° |
| 2026-05-05 06:03 | 38.94722 | -77.45598 | 301 ft | 6 kts | 211° |
| 2026-05-05 06:04 | 38.94681 | -77.45608 | 301 ft | 6 kts | 181° |
| 2026-05-05 06:04 | 38.94616 | -77.45609 | 299 ft | 14 kts | 180° |
| 2026-05-05 06:04 | 38.94517 | -77.45610 | 299 ft | 12 kts | 180° |
| 2026-05-05 06:04 | 38.94439 | -77.45615 | 300 ft | 7 kts | 201° |
| 2026-05-05 06:05 | 38.94424 | -77.45674 | 301 ft | 7 kts | 266° |
| 2026-05-05 06:05 | 38.94394 | -77.45722 | 300 ft | 7 kts | 200° |
| 2026-05-05 06:05 | 38.94360 | -77.45727 | 300 ft | 8 kts | 181° |
| 2026-05-05 06:05 | 38.94285 | -77.45727 | 300 ft | 15 kts | 180° |
| 2026-05-05 06:06 | 38.94153 | -77.45728 | 300 ft | 23 kts | 180° |
| 2026-05-05 06:06 | 38.93973 | -77.45733 | 300 ft | 27 kts | 182° |
| 2026-05-05 06:06 | 38.93824 | -77.45735 | 300 ft | 11 kts | 179° |
| 2026-05-05 06:06 | 38.93757 | -77.45694 | 300 ft | 11 kts | 130° |
| 2026-05-05 06:07 | 38.93706 | -77.45617 | 300 ft | 11 kts | 130° |
| 2026-05-05 06:07 | 38.93655 | -77.45540 | 301 ft | 11 kts | 130° |
| 2026-05-05 06:07 | 38.93590 | -77.45497 | 299 ft | 11 kts | 194° |
| 2026-05-05 06:07 | 38.93515 | -77.45532 | 299 ft | 11 kts | 200° |
| 2026-05-05 06:08 | 38.93441 | -77.45568 | 301 ft | 11 kts | 200° |
| 2026-05-05 06:08 | 38.93374 | -77.45606 | 299 ft | 7 kts | 226° |
| 2026-05-05 06:08 | 38.93380 | -77.45649 | 301 ft | 8 kts | 289° |
| 2026-05-05 06:08 | 38.93443 | -77.45867 | 299 ft | 59 kts | 291° |
| 2026-05-05 06:09 | 38.93686 | -77.46694 | 306 ft | 138 kts | 291° |
| 2026-05-05 06:09 | 38.94113 | -77.48156 | 310 ft | 208 kts | 291° |
| 2026-05-05 06:09 | 38.94705 | -77.49960 | 915 ft | 219 kts | 291° |
| 2026-05-05 06:09 | 38.95306 | -77.51685 | 2169 ft | 206 kts | 289° |
| 2026-05-05 06:10 | 38.95946 | -77.53318 | 2755 ft | 204 kts | 289° |
| 2026-05-05 06:10 | 38.96621 | -77.54980 | 2983 ft | 216 kts | 290° |
| 2026-05-05 06:10 | 38.97318 | -77.56686 | 3343 ft | 220 kts | 290° |
| 2026-05-05 06:10 | 38.98048 | -77.58425 | 3779 ft | 223 kts | 297° |
| 2026-05-05 06:11 | 38.99302 | -77.59669 | 4101 ft | 242 kts | 336° |
| 2026-05-05 06:11 | 39.01028 | -77.59664 | 4417 ft | 262 kts | 12° |
| 2026-05-05 06:11 | 39.02663 | -77.58498 | 4690 ft | 278 kts | 42° |
| 2026-05-05 06:11 | 39.03787 | -77.56439 | 5000 ft | 287 kts | 65° |
| 2026-05-05 06:12 | 39.04677 | -77.54046 | 5200 ft | 303 kts | 64° |
| 2026-05-05 06:12 | 39.05609 | -77.51563 | 5629 ft | 312 kts | 64° |
| 2026-05-05 06:12 | 39.06553 | -77.49035 | 6266 ft | 314 kts | 63° |
| 2026-05-05 06:12 | 39.07481 | -77.46536 | 6917 ft | 313 kts | 63° |
| 2026-05-05 06:13 | 39.08421 | -77.43997 | 7526 ft | 315 kts | 63° |
| 2026-05-05 06:13 | 39.09364 | -77.41447 | 8142 ft | 316 kts | 63° |
| 2026-05-05 06:13 | 39.10312 | -77.38884 | 8764 ft | 317 kts | 63° |
| 2026-05-05 06:13 | 39.11258 | -77.36324 | 9378 ft | 318 kts | 63° |
| 2026-05-05 06:14 | 39.12214 | -77.33741 | 9945 ft | 321 kts | 63° |
| 2026-05-05 06:14 | 39.13185 | -77.31115 | 10338 ft | 331 kts | 63° |
| 2026-05-05 06:14 | 39.14204 | -77.28362 | 10453 ft | 350 kts | 63° |
| 2026-05-05 06:14 | 39.15276 | -77.25462 | 10607 ft | 368 kts | 63° |
| 2026-05-05 06:15 | 39.16405 | -77.22405 | 10769 ft | 386 kts | 63° |
| 2026-05-05 06:15 | 39.17574 | -77.19230 | 11134 ft | 397 kts | 63° |
| 2026-05-05 06:15 | 39.18769 | -77.15981 | 11640 ft | 405 kts | 63° |
| 2026-05-05 06:15 | 39.19966 | -77.12723 | 12275 ft | 408 kts | 63° |
| 2026-05-05 06:16 | 39.21187 | -77.09393 | 12949 ft | 411 kts | 63° |
| 2026-05-05 06:16 | 39.22416 | -77.06043 | 13608 ft | 415 kts | 63° |
| 2026-05-05 06:16 | 39.23655 | -77.02661 | 14185 ft | 419 kts | 63° |
| 2026-05-05 06:16 | 39.24905 | -76.99243 | 14764 ft | 423 kts | 63° |
| 2026-05-05 06:17 | 39.26164 | -76.95798 | 15334 ft | 426 kts | 63° |
| 2026-05-05 06:17 | 39.27432 | -76.92324 | 15911 ft | 430 kts | 63° |
| 2026-05-05 06:17 | 39.28711 | -76.88820 | 16473 ft | 434 kts | 64° |
| 2026-05-05 06:17 | 39.30002 | -76.85274 | 16989 ft | 438 kts | 64° |
| 2026-05-05 06:18 | 39.31299 | -76.81711 | 17586 ft | 441 kts | 64° |
| 2026-05-05 06:18 | 39.32605 | -76.78117 | 18167 ft | 444 kts | 64° |
| 2026-05-05 06:18 | 39.33922 | -76.74486 | 18660 ft | 447 kts | 64° |
| 2026-05-05 06:18 | 39.35245 | -76.70837 | 19165 ft | 449 kts | 64° |
| 2026-05-05 06:19 | 39.36573 | -76.67170 | 19674 ft | 452 kts | 64° |
| 2026-05-05 06:19 | 39.37902 | -76.63492 | 20174 ft | 454 kts | 64° |
| 2026-05-05 06:19 | 39.39242 | -76.59783 | 20669 ft | 456 kts | 64° |
| 2026-05-05 06:19 | 39.40588 | -76.56050 | 21151 ft | 459 kts | 64° |
| 2026-05-05 06:20 | 39.41940 | -76.52297 | 21632 ft | 462 kts | 64° |
| 2026-05-05 06:20 | 39.43301 | -76.48515 | 22140 ft | 463 kts | 65° |
| 2026-05-05 06:20 | 39.44660 | -76.44733 | 22706 ft | 464 kts | 65° |
| 2026-05-05 06:20 | 39.46004 | -76.40989 | 23164 ft | 466 kts | 65° |
| 2026-05-05 06:21 | 39.47372 | -76.37174 | 23613 ft | 468 kts | 65° |
| 2026-05-05 06:21 | 39.48743 | -76.33340 | 23998 ft | 470 kts | 65° |
| 2026-05-05 06:21 | 39.50120 | -76.29486 | 24373 ft | 473 kts | 65° |
| 2026-05-05 06:21 | 39.51521 | -76.25561 | 24758 ft | 475 kts | 65° |
| 2026-05-05 06:22 | 39.52891 | -76.21718 | 25138 ft | 476 kts | 65° |
| 2026-05-05 06:22 | 39.54282 | -76.17812 | 25498 ft | 478 kts | 65° |
| 2026-05-05 06:22 | 39.55676 | -76.13891 | 25847 ft | 480 kts | 65° |
| 2026-05-05 06:22 | 39.57073 | -76.09956 | 26238 ft | 481 kts | 65° |
| 2026-05-05 06:23 | 39.58471 | -76.06014 | 26622 ft | 482 kts | 65° |
| 2026-05-05 06:23 | 39.59870 | -76.02063 | 26933 ft | 484 kts | 65° |
| 2026-05-05 06:23 | 39.61235 | -75.98205 | 27233 ft | 487 kts | 65° |
| 2026-05-05 06:23 | 39.62647 | -75.94205 | 27555 ft | 488 kts | 65° |
| 2026-05-05 06:24 | 39.64079 | -75.90146 | 27895 ft | 490 kts | 65° |
| 2026-05-05 06:24 | 39.65498 | -75.86118 | 28206 ft | 492 kts | 65° |
| 2026-05-05 06:24 | 39.66920 | -75.82074 | 28495 ft | 493 kts | 65° |
| 2026-05-05 06:24 | 39.68328 | -75.78064 | 28761 ft | 495 kts | 66° |
| 2026-05-05 06:25 | 39.69780 | -75.73925 | 28896 ft | 499 kts | 65° |
| 2026-05-05 06:25 | 39.71218 | -75.69816 | 28938 ft | 502 kts | 66° |
| 2026-05-05 06:25 | 39.74106 | -75.61553 | 28965 ft | 508 kts | 66° |
| 2026-05-05 06:26 | 39.77044 | -75.53119 | 28947 ft | 514 kts | 66° |
| 2026-05-05 06:26 | 39.79992 | -75.44634 | 28932 ft | 515 kts | 66° |
| 2026-05-05 06:27 | 39.84412 | -75.31864 | 28928 ft | 515 kts | 66° |
| 2026-05-05 06:28 | 39.87344 | -75.23363 | 28942 ft | 514 kts | 66° |
| 2026-05-05 06:28 | 39.90263 | -75.14870 | 28934 ft | 513 kts | 66° |
| 2026-05-05 06:29 | 39.93155 | -75.06433 | 28937 ft | 513 kts | 66° |
| 2026-05-05 06:29 | 39.96012 | -74.98092 | 28938 ft | 512 kts | 65° |
| 2026-05-05 06:30 | 39.99536 | -74.90029 | 28953 ft | 512 kts | 56° |
| 2026-05-05 06:30 | 40.03544 | -74.82348 | 28932 ft | 513 kts | 55° |
| 2026-05-05 06:31 | 40.07534 | -74.74618 | 28930 ft | 514 kts | 56° |
| 2026-05-05 06:31 | 40.11485 | -74.66835 | 28916 ft | 514 kts | 56° |
| 2026-05-05 06:32 | 40.15433 | -74.59027 | 28916 ft | 514 kts | 56° |
| 2026-05-05 06:32 | 40.19289 | -74.51152 | 28911 ft | 514 kts | 61° |
| 2026-05-05 06:33 | 40.22189 | -74.42605 | 28935 ft | 514 kts | 71° |
| 2026-05-05 06:33 | 40.24439 | -74.33773 | 28941 ft | 514 kts | 71° |
| 2026-05-05 06:34 | 40.26716 | -74.24908 | 28964 ft | 514 kts | 71° |
| 2026-05-05 06:34 | 40.29033 | -74.16043 | 28951 ft | 515 kts | 71° |
| 2026-05-05 06:35 | 40.31352 | -74.07172 | 28949 ft | 515 kts | 71° |
| 2026-05-05 06:35 | 40.33624 | -73.98436 | 28924 ft | 515 kts | 71° |